Time;durP1;ratioP1;P1;durP2;ratioP2;P2;SDS_P1;SDS_P2;PMS_P1;PMS_P2;Temp;Humidity;BMP_temperature;BMP_pressure;BME280_temperature;BME280_humidity;BME280_pressure;Samples;Min_cycle;Max_cycle;Signal;HPM_P1;HPM_P2
2022/03/31 00:00:28;;;;;;;3.83;2.25;;;22.80;39.80;;;;;;4995551;28;20053;-63
2022/03/31 00:02:55;;;;;;;2.65;1.85;;;22.80;39.80;;;;;;5008544;28;20087;-64
2022/03/31 00:05:21;;;;;;;3.00;1.80;;;22.80;40.30;;;;;;4997302;28;21420;-64
2022/03/31 00:07:52;;;;;;;4.40;2.13;;;22.70;39.80;;;;;;4994723;28;20402;-63
2022/03/31 00:10:23;;;;;;;3.40;2.00;;;22.70;39.80;;;;;;4995695;28;20120;-64
2022/03/31 00:12:49;;;;;;;3.38;1.90;;;22.70;39.80;;;;;;4995668;28;20010;-64
2022/03/31 00:15:16;;;;;;;2.50;1.83;;;22.70;39.80;;;;;;4993007;28;20442;-64
2022/03/31 00:17:41;;;;;;;2.92;1.90;;;22.70;39.80;;;;;;4994304;28;20108;-64
2022/03/31 00:20:08;;;;;;;3.30;1.83;;;22.70;40.40;;;;;;4994126;28;20038;-64
2022/03/31 00:22:34;;;;;;;3.30;1.88;;;22.60;39.80;;;;;;4995484;28;20057;-63
2022/03/31 00:24:59;;;;;;;2.85;1.92;;;22.60;39.80;;;;;;4994832;28;20060;-63
2022/03/31 00:27:25;;;;;;;3.88;1.83;;;22.60;39.80;;;;;;4995232;28;20368;-62
2022/03/31 00:29:50;;;;;;;2.88;1.98;;;22.60;39.80;;;;;;4994090;28;20128;-64
2022/03/31 00:32:16;;;;;;;2.50;1.63;;;22.60;39.80;;;;;;4990672;28;20065;-64
2022/03/31 00:34:42;;;;;;;2.90;1.80;;;22.60;39.90;;;;;;4994162;28;20128;-63
2022/03/31 00:37:07;;;;;;;2.88;1.70;;;22.60;39.90;;;;;;4995633;28;20045;-64
2022/03/31 00:39:33;;;;;;;2.40;1.70;;;22.60;39.90;;;;;;4994013;28;20084;-64
2022/03/31 00:42:06;;;;;;;2.50;1.80;;;22.60;39.90;;;;;;4996798;28;20029;-64
2022/03/31 00:44:31;;;;;;;2.50;1.80;;;22.60;39.90;;;;;;4995860;28;20030;-64
2022/03/31 00:46:57;;;;;;;3.47;1.90;;;22.50;39.90;;;;;;4990740;28;20118;-62
2022/03/31 00:49:24;;;;;;;2.80;2.25;;;22.50;39.90;;;;;;4992238;28;20501;-64
2022/03/31 00:51:52;;;;;;;3.30;2.22;;;22.50;39.90;;;;;;4995711;28;20026;-64
2022/03/31 00:54:22;;;;;;;2.60;1.80;;;22.50;40.00;;;;;;4994051;28;20033;-64
2022/03/31 00:56:49;;;;;;;2.58;1.58;;;22.50;40.00;;;;;;4996633;28;20026;-64
2022/03/31 00:59:17;;;;;;;2.20;1.50;;;22.50;40.00;;;;;;4991575;28;20057;-64
2022/03/31 01:01:44;;;;;;;2.55;1.80;;;22.40;40.00;;;;;;4993137;28;20050;-63
2022/03/31 01:04:11;;;;;;;2.97;1.75;;;22.50;40.00;;;;;;4993700;28;20064;-64
2022/03/31 01:06:37;;;;;;;2.97;2.08;;;22.40;40.50;;;;;;4995211;28;20024;-63
2022/03/31 01:09:04;;;;;;;3.05;1.88;;;22.40;40.00;;;;;;4992679;28;20038;-64
2022/03/31 01:11:30;;;;;;;2.95;1.88;;;22.40;40.00;;;;;;4994366;28;20025;-64
2022/03/31 01:13:56;;;;;;;2.92;1.88;;;22.40;40.00;;;;;;4995335;28;20467;-64
2022/03/31 01:16:22;;;;;;;2.05;1.60;;;22.40;40.00;;;;;;4991477;28;20033;-64
2022/03/31 01:18:48;;;;;;;2.40;1.60;;;22.40;40.00;;;;;;4989270;28;20058;-64
2022/03/31 01:21:14;;;;;;;2.15;1.65;;;22.40;40.00;;;;;;4993869;28;20107;-63
2022/03/31 01:23:40;;;;;;;2.40;1.70;;;22.30;40.00;;;;;;4994345;28;20117;-61
2022/03/31 01:26:09;;;;;;;2.78;1.80;;;22.30;40.00;;;;;;4993369;28;20124;-64
2022/03/31 01:28:36;;;;;;;2.75;1.88;;;22.30;40.00;;;;;;4992366;28;20350;-64
2022/03/31 01:31:02;;;;;;;2.30;1.70;;;22.30;40.00;;;;;;4993047;28;20075;-64
2022/03/31 01:33:28;;;;;;;2.03;1.52;;;22.30;40.00;;;;;;4990965;28;20112;-63
2022/03/31 01:35:55;;;;;;;2.58;1.70;;;22.30;40.10;;;;;;4993929;28;20037;-64
2022/03/31 01:38:20;;;;;;;2.33;1.70;;;22.30;40.10;;;;;;4993823;28;20048;-64
2022/03/31 01:40:46;;;;;;;2.20;1.45;;;22.30;40.10;;;;;;4992524;28;20144;-64
2022/03/31 01:43:12;;;;;;;2.13;1.58;;;22.30;40.10;;;;;;4992256;28;20369;-63
2022/03/31 01:45:38;;;;;;;2.40;1.67;;;22.30;40.10;;;;;;4994023;28;20175;-63
2022/03/31 01:48:04;;;;;;;2.25;1.52;;;22.30;40.10;;;;;;4989112;28;20065;-64
2022/03/31 01:50:30;;;;;;;2.40;1.60;;;22.20;40.10;;;;;;4993881;28;20049;-64
2022/03/31 01:52:56;;;;;;;2.40;1.40;;;22.20;40.10;;;;;;4992747;28;20030;-63
2022/03/31 01:55:21;;;;;;;2.55;1.60;;;22.20;40.10;;;;;;4994568;28;20363;-63
2022/03/31 01:57:47;;;;;;;2.65;1.80;;;22.20;40.10;;;;;;4992364;28;20033;-64
2022/03/31 02:00:13;;;;;;;2.80;1.80;;;22.20;40.10;;;;;;4990029;28;20047;-64
2022/03/31 02:02:40;;;;;;;2.67;1.70;;;22.20;40.10;;;;;;4989957;28;20081;-64
2022/03/31 02:05:07;;;;;;;2.30;1.50;;;22.20;40.10;;;;;;4994138;28;20045;-64
2022/03/31 02:07:33;;;;;;;2.35;1.60;;;22.20;40.10;;;;;;4994045;28;20049;-62
2022/03/31 02:09:59;;;;;;;2.20;1.60;;;22.20;40.10;;;;;;4993369;28;20062;-64
2022/03/31 02:12:24;;;;;;;2.50;1.60;;;22.10;40.20;;;;;;4994473;28;20431;-63
2022/03/31 02:14:50;;;;;;;2.15;1.45;;;22.10;40.20;;;;;;4989011;28;20867;-64
2022/03/31 02:17:16;;;;;;;2.80;1.67;;;22.10;40.20;;;;;;4988859;28;20467;-63
2022/03/31 02:19:41;;;;;;;2.55;1.52;;;22.10;40.20;;;;;;4990988;28;20022;-63
2022/03/31 02:22:08;;;;;;;2.50;1.67;;;22.10;40.20;;;;;;4993954;28;20037;-62
2022/03/31 02:24:36;;;;;;;2.55;1.70;;;22.10;40.20;;;;;;4993513;28;20615;-63
2022/03/31 02:27:04;;;;;;;2.50;1.67;;;22.10;40.20;;;;;;4994180;28;20124;-64
2022/03/31 02:29:29;;;;;;;2.38;1.42;;;22.10;40.20;;;;;;4992970;28;20030;-62
2022/03/31 02:31:56;;;;;;;2.40;1.70;;;22.10;40.30;;;;;;4992003;28;20041;-63
2022/03/31 02:34:22;;;;;;;2.33;1.70;;;22.00;40.20;;;;;;4990270;28;20120;-64
2022/03/31 02:36:48;;;;;;;2.50;1.60;;;22.00;40.20;;;;;;4993733;28;20026;-62
2022/03/31 02:39:14;;;;;;;2.15;1.50;;;22.00;40.20;;;;;;4991621;28;20053;-64
2022/03/31 02:41:40;;;;;;;2.30;1.65;;;22.00;40.20;;;;;;4994490;28;20037;-64
2022/03/31 02:44:07;;;;;;;2.25;1.42;;;22.00;40.30;;;;;;4990940;28;20096;-63
2022/03/31 02:46:33;;;;;;;1.80;1.45;;;22.00;40.20;;;;;;4991652;28;20029;-64
2022/03/31 02:48:59;;;;;;;2.00;1.42;;;22.00;40.20;;;;;;4987552;28;20156;-63
2022/03/31 02:51:25;;;;;;;2.03;1.45;;;22.00;40.20;;;;;;4995057;28;20101;-64
2022/03/31 02:56:37;;;;;;;2.50;1.70;;;22.00;40.30;;;;;;4993754;28;20289;-63
2022/03/31 02:59:09;;;;;;;2.42;1.60;;;22.00;40.30;;;;;;4990829;28;20347;-64
2022/03/31 03:01:35;;;;;;;2.13;1.50;;;22.00;40.30;;;;;;4990787;28;20145;-62
2022/03/31 03:04:02;;;;;;;2.17;1.45;;;22.00;40.30;;;;;;4991177;28;20030;-64
2022/03/31 03:06:27;;;;;;;2.30;1.40;;;21.90;40.30;;;;;;4993386;28;20174;-63
2022/03/31 03:08:54;;;;;;;2.13;1.60;;;21.90;40.30;;;;;;4993134;28;20025;-64
2022/03/31 03:11:20;;;;;;;2.35;1.60;;;21.90;40.30;;;;;;4991899;28;20037;-63
2022/03/31 03:13:46;;;;;;;2.00;1.30;;;21.90;40.30;;;;;;4992062;28;20037;-63
2022/03/31 03:16:12;;;;;;;2.13;1.40;;;21.90;40.30;;;;;;4991306;28;20131;-63
2022/03/31 03:18:39;;;;;;;2.10;1.55;;;21.90;40.30;;;;;;4984446;28;20439;-64
2022/03/31 03:21:07;;;;;;;1.98;1.35;;;21.90;40.30;;;;;;4989827;28;20026;-64
2022/03/31 03:23:36;;;;;;;2.08;1.42;;;21.90;40.40;;;;;;4989951;28;20038;-64
2022/03/31 03:26:02;;;;;;;;;;;21.90;40.40;;;;;;4990433;28;20061;-63
2022/03/31 03:28:29;;;;;;;1.90;1.30;;;21.90;40.40;;;;;;4992299;28;19909;-63
2022/03/31 03:30:55;;;;;;;2.10;1.48;;;21.90;40.40;;;;;;5001712;28;20054;-62
2022/03/31 03:33:20;;;;;;;1.95;1.45;;;21.90;40.40;;;;;;4992935;28;20068;-61
2022/03/31 03:35:46;;;;;;;2.38;1.52;;;21.90;40.40;;;;;;4988929;28;20041;-64
2022/03/31 03:38:14;;;;;;;2.47;1.60;;;21.80;40.40;;;;;;4992275;28;20322;-63
2022/03/31 03:40:41;;;;;;;1.75;1.33;;;21.80;40.40;;;;;;4993373;28;20037;-64
2022/03/31 03:43:06;;;;;;;1.88;1.40;;;21.80;40.40;;;;;;4987276;28;20038;-64
2022/03/31 03:45:32;;;;;;;1.98;1.40;;;21.80;40.40;;;;;;4987550;28;20029;-63
2022/03/31 03:47:59;;;;;;;1.70;1.25;;;21.80;40.40;;;;;;4990666;28;20502;-64
2022/03/31 03:50:25;;;;;;;2.17;1.40;;;21.80;40.40;;;;;;4991727;28;20030;-64
2022/03/31 03:52:51;;;;;;;2.30;1.60;;;21.80;40.50;;;;;;4988904;28;20147;-64
2022/03/31 03:55:17;;;;;;;2.00;1.50;;;21.80;40.40;;;;;;4989730;28;20057;-65
2022/03/31 03:57:43;;;;;;;2.30;1.52;;;21.80;40.50;;;;;;4991304;28;20089;-62
2022/03/31 04:00:10;;;;;;;1.98;1.50;;;21.80;40.50;;;;;;4989344;28;20041;-64
2022/03/31 04:02:36;;;;;;;2.75;1.70;;;21.80;40.50;;;;;;4986516;28;20022;-64
2022/03/31 04:05:02;;;;;;;1.88;1.40;;;21.80;40.60;;;;;;4992981;28;20038;-63
2022/03/31 04:07:28;;;;;;;2.22;1.40;;;21.80;40.60;;;;;;4991691;28;20463;-64
2022/03/31 04:09:53;;;;;;;2.00;1.40;;;21.80;40.60;;;;;;4990875;28;20034;-62
2022/03/31 04:12:19;;;;;;;2.00;1.30;;;21.80;40.60;;;;;;4989954;28;20280;-64
2022/03/31 04:14:45;;;;;;;1.98;1.40;;;21.80;40.60;;;;;;4989093;28;20537;-64
2022/03/31 04:17:10;;;;;;;1.98;1.50;;;21.80;40.70;;;;;;4985220;28;20033;-63
2022/03/31 04:19:36;;;;;;;2.40;1.40;;;21.80;40.70;;;;;;4989823;28;20141;-64
2022/03/31 04:22:02;;;;;;;2.10;1.40;;;21.70;40.70;;;;;;4994159;28;20033;-65
2022/03/31 04:24:27;;;;;;;2.30;1.40;;;21.70;40.70;;;;;;4993255;28;20383;-64
2022/03/31 04:26:53;;;;;;;2.47;1.58;;;21.70;40.70;;;;;;4994725;28;20068;-63
2022/03/31 04:29:18;;;;;;;2.30;1.50;;;21.80;40.80;;;;;;4992382;28;20026;-64
2022/03/31 04:31:45;;;;;;;2.63;1.83;;;21.70;40.70;;;;;;4992042;28;20481;-63
2022/03/31 04:34:11;;;;;;;1.83;1.40;;;21.70;40.70;;;;;;4992278;28;20018;-63
2022/03/31 04:36:37;;;;;;;1.83;1.25;;;21.70;40.70;;;;;;4995077;28;20025;-61
2022/03/31 04:39:03;;;;;;;2.20;1.33;;;21.70;40.70;;;;;;4994457;28;20034;-64
2022/03/31 04:41:29;;;;;;;1.70;1.20;;;21.70;40.80;;;;;;4995202;28;20025;-64
2022/03/31 04:43:55;;;;;;;1.95;1.30;;;21.70;40.80;;;;;;4993624;28;20944;-63
2022/03/31 04:46:20;;;;;;;2.08;1.38;;;21.70;40.80;;;;;;4990400;28;20548;-64
2022/03/31 04:48:46;;;;;;;2.28;1.48;;;21.70;40.80;;;;;;4993443;28;20029;-64
2022/03/31 04:51:12;;;;;;;2.30;1.50;;;21.70;40.80;;;;;;5009802;28;20033;-64
2022/03/31 04:53:37;;;;;;;2.33;1.38;;;21.70;40.80;;;;;;4995645;28;20065;-65
2022/03/31 04:56:03;;;;;;;3.00;1.35;;;21.70;40.80;;;;;;4992535;28;20088;-64
2022/03/31 04:58:30;;;;;;;1.70;1.27;;;21.70;40.90;;;;;;4994059;28;20332;-63
2022/03/31 05:00:55;;;;;;;1.90;1.30;;;21.70;40.90;;;;;;4987365;28;20045;-62
2022/03/31 05:03:21;;;;;;;1.85;1.40;;;21.70;40.90;;;;;;4988835;28;20475;-64
2022/03/31 05:05:46;;;;;;;2.70;1.40;;;21.70;40.90;;;;;;4989880;28;20026;-64
2022/03/31 05:08:12;;;;;;;3.00;1.42;;;21.70;40.90;;;;;;4992915;28;20026;-63
2022/03/31 05:10:38;;;;;;;2.50;1.30;;;21.60;40.90;;;;;;4991875;28;20450;-64
2022/03/31 05:13:04;;;;;;;2.50;1.42;;;21.60;40.90;;;;;;4991168;28;20204;-63
2022/03/31 05:15:30;;;;;;;2.55;1.30;;;21.60;40.90;;;;;;4992629;28;20029;-65
2022/03/31 05:17:55;;;;;;;1.90;1.20;;;21.60;40.90;;;;;;4991646;28;20120;-63
2022/03/31 05:20:22;;;;;;;2.33;1.60;;;21.60;40.90;;;;;;4993581;28;20038;-65
2022/03/31 05:22:48;;;;;;;2.05;1.40;;;21.60;40.90;;;;;;4993565;28;20505;-64
2022/03/31 05:25:14;;;;;;;1.98;1.33;;;21.60;41.00;;;;;;4995710;28;20063;-64
2022/03/31 05:27:41;;;;;;;2.05;1.30;;;21.60;41.00;;;;;;4988932;28;20157;-64
2022/03/31 05:30:07;;;;;;;2.47;1.40;;;21.60;41.00;;;;;;4989413;28;20030;-63
2022/03/31 05:32:33;;;;;;;2.60;1.30;;;21.60;41.00;;;;;;4989481;28;20165;-64
2022/03/31 05:34:59;;;;;;;2.33;1.30;;;21.60;41.00;;;;;;4994624;28;20026;-63
2022/03/31 05:37:24;;;;;;;2.20;1.40;;;21.60;41.00;;;;;;4990600;28;20426;-64
2022/03/31 05:39:50;;;;;;;1.73;1.30;;;21.60;41.00;;;;;;4992772;28;20022;-64
2022/03/31 05:42:16;;;;;;;3.03;1.30;;;21.60;41.00;;;;;;4991783;28;20038;-62
2022/03/31 05:44:42;;;;;;;2.33;1.55;;;21.60;41.00;;;;;;4994404;28;20018;-63
2022/03/31 05:47:08;;;;;;;2.70;1.38;;;21.60;41.00;;;;;;4989163;28;20030;-64
2022/03/31 05:49:33;;;;;;;2.17;1.20;;;21.60;41.00;;;;;;4991397;28;20040;-64
2022/03/31 05:51:59;;;;;;;2.15;1.33;;;21.60;41.00;;;;;;4994624;28;20022;-64
2022/03/31 05:54:25;;;;;;;2.17;1.35;;;21.60;40.90;;;;;;4992607;28;20358;-64
2022/03/31 05:56:51;;;;;;;1.88;1.20;;;21.60;40.90;;;;;;4994390;28;20457;-65
2022/03/31 05:59:17;;;;;;;2.22;1.30;;;21.60;40.90;;;;;;4994389;28;20022;-64
2022/03/31 06:01:42;;;;;;;1.98;1.20;;;21.60;40.90;;;;;;4990704;28;20088;-62
2022/03/31 06:04:08;;;;;;;2.40;1.45;;;21.60;40.90;;;;;;4993067;28;20417;-64
2022/03/31 06:06:34;;;;;;;2.70;1.48;;;21.60;40.90;;;;;;4995778;28;20091;-64
2022/03/31 06:09:00;;;;;;;2.58;1.40;;;21.60;40.90;;;;;;4995278;28;20054;-64
2022/03/31 06:11:26;;;;;;;2.20;1.30;;;21.50;40.80;;;;;;4990982;28;20029;-64
2022/03/31 06:13:51;;;;;;;2.47;1.30;;;21.50;40.80;;;;;;4994780;28;20030;-63
2022/03/31 06:16:17;;;;;;;2.63;1.50;;;21.60;40.90;;;;;;4989153;28;20033;-63
2022/03/31 06:18:44;;;;;;;2.70;1.50;;;21.60;41.20;;;;;;4987961;28;20120;-64
2022/03/31 06:21:09;;;;;;;3.72;1.80;;;21.60;41.40;;;;;;4990744;28;20054;-64
2022/03/31 06:23:35;;;;;;;4.18;1.92;;;21.70;41.60;;;;;;4989720;28;20054;-63
2022/03/31 06:26:00;;;;;;;4.35;2.17;;;21.80;41.70;;;;;;4993391;28;20045;-63
2022/03/31 06:28:28;;;;;;;4.45;2.60;;;21.90;41.60;;;;;;4993361;28;20645;-64
2022/03/31 06:30:55;;;;;;;6.50;2.90;;;22.00;41.40;;;;;;4989974;28;20042;-64
2022/03/31 06:33:20;;;;;;;6.28;2.38;;;22.10;41.20;;;;;;4987747;28;20419;-63
2022/03/31 06:35:47;;;;;;;5.18;2.40;;;22.20;41.10;;;;;;4994761;28;20069;-62
2022/03/31 06:38:13;;;;;;;4.63;2.10;;;22.30;41.10;;;;;;4989168;28;20084;-64
2022/03/31 06:40:40;;;;;;;5.03;2.53;;;22.40;40.70;;;;;;4990927;28;20029;-64
2022/03/31 06:43:06;;;;;;;5.18;2.50;;;22.40;40.60;;;;;;4989539;28;20084;-64
2022/03/31 06:45:32;;;;;;;4.95;2.25;;;22.40;40.60;;;;;;4988899;28;20486;-63
2022/03/31 06:47:59;;;;;;;5.47;2.33;;;22.40;40.50;;;;;;4988884;28;20399;-62
2022/03/31 06:50:24;;;;;;;4.68;2.40;;;22.40;40.50;;;;;;4992951;28;20543;-64
2022/03/31 06:52:50;;;;;;;5.65;2.70;;;22.50;40.40;;;;;;4991142;28;20171;-64
2022/03/31 06:55:16;;;;;;;4.63;2.38;;;22.50;40.40;;;;;;4994649;28;20074;-63
2022/03/31 06:57:42;;;;;;;4.68;2.30;;;22.50;40.40;;;;;;4987899;28;20026;-64
2022/03/31 07:00:08;;;;;;;4.35;2.42;;;22.50;40.40;;;;;;4991823;28;20065;-63
2022/03/31 07:02:34;;;;;;;5.07;2.47;;;22.50;40.30;;;;;;4989373;28;20060;-63
2022/03/31 07:05:00;;;;;;;6.70;2.38;;;22.50;40.30;;;;;;4994131;28;20038;-64
2022/03/31 07:07:25;;;;;;;6.15;2.60;;;22.50;40.30;;;;;;4991256;28;20125;-64
2022/03/31 07:09:52;;;;;;;5.55;2.75;;;22.50;40.20;;;;;;4991275;28;20032;-63
2022/03/31 07:12:18;;;;;;;5.60;2.58;;;22.60;40.30;;;;;;4991623;28;20033;-64
2022/03/31 07:14:44;;;;;;;4.20;2.42;;;22.60;40.30;;;;;;4991917;28;20117;-64
2022/03/31 07:17:10;;;;;;;4.50;2.25;;;22.60;40.20;;;;;;4989831;28;20034;-63
2022/03/31 07:19:35;;;;;;;5.78;2.45;;;22.60;40.20;;;;;;4992038;28;20041;-64
2022/03/31 07:22:02;;;;;;;5.70;2.38;;;22.60;40.20;;;;;;4992587;28;20053;-64
2022/03/31 07:24:28;;;;;;;5.18;2.50;;;22.60;40.10;;;;;;4990840;28;20308;-64
2022/03/31 07:26:54;;;;;;;4.75;2.13;;;22.60;40.10;;;;;;4989411;28;20034;-64
2022/03/31 07:29:20;;;;;;;5.13;2.58;;;22.60;40.10;;;;;;4992660;28;20133;-64
2022/03/31 07:31:45;;;;;;;5.00;2.20;;;22.70;40.10;;;;;;4986381;28;20073;-63
2022/03/31 07:34:11;;;;;;;4.20;2.08;;;22.70;40.10;;;;;;4989619;28;20953;-63
2022/03/31 07:36:37;;;;;;;4.53;2.40;;;22.70;40.50;;;;;;4986610;28;20037;-64
2022/03/31 07:39:03;;;;;;;3.88;2.35;;;22.70;40.10;;;;;;4990884;28;20034;-63
2022/03/31 07:41:28;;;;;;;5.30;2.50;;;22.70;40.10;;;;;;4984632;28;20034;-63
2022/03/31 07:43:54;;;;;;;5.47;2.50;;;22.70;40.10;;;;;;4973668;28;20378;-64
2022/03/31 07:46:20;;;;;;;4.57;2.42;;;22.70;40.20;;;;;;4971191;28;20054;-63
2022/03/31 07:48:45;;;;;;;4.57;2.47;;;22.70;40.20;;;;;;4988506;28;20025;-63
2022/03/31 07:51:11;;;;;;;5.35;2.40;;;22.80;40.10;;;;;;5006361;28;20172;-63
2022/03/31 07:53:38;;;;;;;4.68;2.50;;;22.80;40.10;;;;;;4988719;28;20105;-64
2022/03/31 07:56:05;;;;;;;4.20;2.33;;;22.80;40.00;;;;;;4992995;28;20480;-64
2022/03/31 07:58:31;;;;;;;5.38;2.50;;;22.80;40.00;;;;;;4995298;28;20033;-64
2022/03/31 08:00:57;;;;;;;4.25;2.30;;;22.80;39.90;;;;;;4992406;28;20217;-64
2022/03/31 08:03:23;;;;;;;4.95;2.50;;;22.80;40.50;;;;;;4994551;28;20786;-64
2022/03/31 08:05:49;;;;;;;8.35;2.70;;;22.80;39.90;;;;;;4995778;28;20072;-64
2022/03/31 08:08:15;;;;;;;4.30;2.22;;;22.80;39.90;;;;;;4994247;28;20021;-64
2022/03/31 08:10:41;;;;;;;4.32;2.45;;;22.80;39.90;;;;;;4994085;28;20328;-64
2022/03/31 08:13:08;;;;;;;3.83;2.20;;;22.90;39.80;;;;;;4992811;28;20109;-64
2022/03/31 08:15:34;;;;;;;4.65;2.38;;;22.90;40.00;;;;;;4996443;28;20144;-62
2022/03/31 08:18:00;;;;;;;4.60;2.60;;;22.90;39.80;;;;;;4991227;28;20394;-62
2022/03/31 08:20:27;;;;;;;4.60;2.13;;;22.90;39.80;;;;;;4994051;28;20064;-63
2022/03/31 08:22:53;;;;;;;4.47;2.35;;;22.90;39.80;;;;;;4994812;28;20025;-64
2022/03/31 08:25:20;;;;;;;4.85;2.47;;;22.90;40.30;;;;;;4995285;28;20041;-63
2022/03/31 08:27:46;;;;;;;4.97;2.53;;;22.90;39.70;;;;;;4992914;28;20026;-64
2022/03/31 08:30:18;;;;;;;3.50;2.08;;;22.90;39.70;;;;;;4992757;28;20026;-63
2022/03/31 08:32:46;;;;;;;3.88;2.17;;;22.90;39.70;;;;;;4994329;28;20034;-64
2022/03/31 08:35:13;;;;;;;3.53;2.20;;;22.90;39.80;;;;;;4996569;28;20359;-62
2022/03/31 08:37:39;;;;;;;4.10;2.00;;;23.00;39.80;;;;;;4995891;28;20041;-64
2022/03/31 08:40:07;;;;;;;4.40;2.40;;;23.00;39.80;;;;;;4992030;28;20096;-64
2022/03/31 08:42:33;;;;;;;5.45;2.40;;;23.00;39.70;;;;;;4994395;28;20064;-64
2022/03/31 08:45:00;;;;;;;4.45;2.30;;;23.00;39.80;;;;;;4993638;28;20109;-63
2022/03/31 08:47:27;;;;;;;4.20;2.50;;;23.00;39.70;;;;;;4992064;28;20045;-63
2022/03/31 08:49:55;;;;;;;4.97;2.30;;;23.10;39.80;;;;;;4991589;28;20037;-64
2022/03/31 08:52:21;;;;;;;4.00;2.22;;;23.10;39.70;;;;;;4995505;28;20041;-64
2022/03/31 08:54:47;;;;;;;4.00;2.00;;;23.10;39.70;;;;;;4991027;28;20498;-64
2022/03/31 08:57:15;;;;;;;4.80;2.55;;;23.10;39.60;;;;;;5006267;28;20050;-63
2022/03/31 08:59:40;;;;;;;4.05;2.20;;;23.10;39.70;;;;;;4991807;28;20116;-63
2022/03/31 09:02:06;;;;;;;4.18;2.20;;;23.10;39.70;;;;;;4991021;28;20199;-63
2022/03/31 09:04:32;;;;;;;4.68;2.25;;;23.10;39.70;;;;;;4992049;28;20374;-64
2022/03/31 09:07:06;;;;;;;3.63;2.00;;;23.10;39.60;;;;;;4992121;28;20022;-64
2022/03/31 09:09:47;;;;;;;4.22;2.28;;;23.10;39.50;;;;;;4988498;28;20557;-62
2022/03/31 09:12:13;;;;;;;4.53;2.30;;;23.10;39.50;;;;;;5007759;28;20041;-64
2022/03/31 09:14:38;;;;;;;4.70;2.20;;;23.10;39.50;;;;;;4993884;28;20393;-63
2022/03/31 09:17:12;;;;;;;3.22;2.05;;;23.10;39.50;;;;;;4984614;28;20394;-64
2022/03/31 09:19:38;;;;;;;3.78;2.30;;;23.10;39.60;;;;;;4992221;28;20013;-62
2022/03/31 09:22:04;;;;;;;4.07;2.15;;;23.10;39.50;;;;;;4992799;28;21322;-64
2022/03/31 09:24:31;;;;;;;3.42;2.05;;;23.10;39.50;;;;;;4993031;28;20030;-62
2022/03/31 09:26:58;;;;;;;3.70;1.75;;;23.10;39.50;;;;;;4992454;28;20567;-63
2022/03/31 09:29:27;;;;;;;3.45;2.00;;;23.20;39.60;;;;;;4994334;28;20497;-62
2022/03/31 09:32:05;;;;;;;4.15;2.33;;;23.10;39.50;;;;;;4987385;28;20034;-64
2022/03/31 09:34:41;;;;;;;4.38;1.90;;;23.20;39.50;;;;;;4991921;28;20111;-64
2022/03/31 09:37:07;;;;;;;4.05;2.03;;;23.10;39.40;;;;;;4992589;28;20104;-64
2022/03/31 09:39:33;;;;;;;3.80;1.83;;;23.10;39.40;;;;;;4989982;28;20156;-64
2022/03/31 09:41:59;;;;;;;3.13;1.73;;;23.20;39.40;;;;;;4995121;28;20027;-63
2022/03/31 09:44:25;;;;;;;4.00;2.00;;;23.20;39.40;;;;;;4992647;28;20021;-63
2022/03/31 09:46:52;;;;;;;3.10;1.75;;;23.20;39.50;;;;;;4988212;28;20034;-61
2022/03/31 09:49:27;;;;;;;3.85;2.10;;;23.20;39.40;;;;;;4992178;28;20022;-64
2022/03/31 09:51:55;;;;;;;3.50;2.03;;;23.20;39.40;;;;;;4994070;28;20026;-62
2022/03/31 09:54:23;;;;;;;3.35;2.00;;;23.20;39.40;;;;;;4988256;28;20080;-64
2022/03/31 09:56:49;;;;;;;4.45;2.53;;;23.20;39.40;;;;;;4989945;28;20030;-64
2022/03/31 09:59:16;;;;;;;3.30;1.90;;;23.20;39.40;;;;;;4979200;28;20104;-62
2022/03/31 10:01:43;;;;;;;4.25;2.10;;;23.20;39.40;;;;;;4989553;28;20044;-63
2022/03/31 10:04:11;;;;;;;3.20;1.90;;;23.20;39.40;;;;;;4987947;28;20018;-63
2022/03/31 10:06:39;;;;;;;3.60;1.80;;;23.20;39.40;;;;;;4995779;28;20036;-63
2022/03/31 10:09:07;;;;;;;2.95;2.08;;;23.20;39.30;;;;;;4990528;28;20068;-62
2022/03/31 10:11:35;;;;;;;3.22;1.95;;;23.20;39.30;;;;;;4994027;28;20045;-63
2022/03/31 10:14:16;;;;;;;2.80;1.80;;;23.20;39.40;;;;;;4994778;28;20542;-62
2022/03/31 10:16:47;;;;;;;3.22;1.90;;;23.20;39.40;;;;;;4987629;28;20034;-63
2022/03/31 10:19:29;;;;;;;3.10;1.80;;;23.20;39.40;;;;;;4985509;28;20025;-63
2022/03/31 10:24:41;;;;;;;3.55;1.80;;;23.20;39.40;;;;;;4988570;28;20088;-62
2022/03/31 10:24:58;;;;;;;2.50;1.70;;;23.20;39.40;;;;;;4987889;28;20045;-63
2022/03/31 10:27:26;;;;;;;2.65;1.70;;;23.20;39.30;;;;;;4991747;28;20033;-64
2022/03/31 10:29:53;;;;;;;3.78;2.10;;;23.20;39.40;;;;;;4991425;28;20467;-64
2022/03/31 10:32:24;;;;;;;3.22;1.90;;;23.20;39.40;;;;;;4991213;28;20038;-64
2022/03/31 10:34:51;;;;;;;3.35;2.03;;;23.20;39.40;;;;;;4992137;28;20030;-61
2022/03/31 10:37:34;;;;;;;3.40;1.80;;;23.20;39.40;;;;;;4993144;28;20327;-63
2022/03/31 10:40:00;;;;;;;3.17;1.88;;;23.20;39.40;;;;;;4989011;28;20060;-63
2022/03/31 10:42:26;;;;;;;4.45;2.00;;;23.20;39.40;;;;;;4991689;28;20037;-63
2022/03/31 10:45:06;;;;;;;2.72;1.55;;;23.30;39.50;;;;;;4990629;28;21152;-63
2022/03/31 10:47:34;;;;;;;3.13;1.85;;;23.30;39.40;;;;;;4989672;28;21280;-63
2022/03/31 10:49:59;;;;;;;3.10;1.60;;;23.30;39.40;;;;;;4990276;28;20029;-61
2022/03/31 10:52:27;;;;;;;3.10;1.90;;;23.30;39.40;;;;;;4991831;28;20036;-63
2022/03/31 10:55:07;;;;;;;2.58;1.60;;;23.30;40.00;;;;;;4992681;28;20034;-62
2022/03/31 10:57:40;;;;;;;;;;;23.30;39.40;;;;;;4990506;28;20049;-63
2022/03/31 11:00:08;;;;;;;2.67;1.63;;;23.30;39.50;;;;;;4982251;28;20295;-63
2022/03/31 11:02:40;;;;;;;2.65;1.50;;;23.30;39.50;;;;;;4977880;28;20041;-63
2022/03/31 11:05:07;;;;;;;3.00;1.70;;;23.30;39.50;;;;;;4980522;28;20465;-63
2022/03/31 11:07:33;;;;;;;4.00;2.00;;;23.30;39.50;;;;;;4979977;28;20101;-63
2022/03/31 11:10:09;;;;;;;2.67;1.60;;;23.30;39.50;;;;;;4986979;28;20036;-63
2022/03/31 11:12:36;;;;;;;2.95;1.75;;;23.30;39.50;;;;;;4986109;28;20030;-63
2022/03/31 11:15:07;;;;;;;3.65;1.67;;;23.30;39.50;;;;;;4985621;28;20025;-62
2022/03/31 11:17:33;;;;;;;2.83;1.50;;;23.30;39.60;;;;;;4985585;28;20544;-63
2022/03/31 11:20:06;;;;;;;3.03;1.70;;;23.30;39.60;;;;;;4985470;28;20562;-62
2022/03/31 11:22:31;;;;;;;2.80;2.00;;;23.30;39.60;;;;;;4989709;28;20121;-63
2022/03/31 11:25:12;;;;;;;2.80;1.73;;;23.30;39.60;;;;;;4982534;28;20048;-63
2022/03/31 11:27:40;;;;;;;2.70;1.60;;;23.30;39.60;;;;;;4988330;28;20365;-61
2022/03/31 11:30:18;;;;;;;3.25;1.73;;;23.30;40.10;;;;;;4991413;28;20064;-62
2022/03/31 11:32:45;;;;;;;2.80;1.67;;;23.40;39.70;;;;;;4989468;28;20335;-63
2022/03/31 11:35:17;;;;;;;2.47;1.55;;;23.40;39.70;;;;;;4989283;28;20029;-63
2022/03/31 11:38:03;;;;;;;3.28;1.88;;;23.40;39.70;;;;;;4995453;28;20191;-63
2022/03/31 11:40:34;;;;;;;3.28;1.70;;;23.40;39.70;;;;;;4995237;28;20167;-64
2022/03/31 11:43:02;;;;;;;2.80;1.52;;;23.40;39.70;;;;;;4990492;28;20072;-64
2022/03/31 11:45:28;;;;;;;2.67;1.75;;;23.40;39.70;;;;;;4992375;28;20064;-63
2022/03/31 11:48:12;;;;;;;2.88;1.50;;;23.40;39.70;;;;;;4987440;28;20629;-61
2022/03/31 11:50:52;;;;;;;2.35;1.55;;;23.40;39.70;;;;;;4990651;28;20026;-63
2022/03/31 11:53:32;;;;;;;2.90;1.55;;;23.40;39.70;;;;;;4995004;28;20319;-62
2022/03/31 11:56:03;;;;;;;2.30;1.50;;;23.40;39.70;;;;;;4989236;28;20349;-65
2022/03/31 11:58:30;;;;;;;3.65;1.90;;;23.40;39.70;;;;;;5000285;28;20157;-63
2022/03/31 12:00:56;;;;;;;2.58;1.55;;;23.40;39.70;;;;;;4988844;28;20161;-64
2022/03/31 12:03:22;;;;;;;3.05;1.73;;;23.40;39.70;;;;;;4989538;28;20028;-64
2022/03/31 12:05:58;;;;;;;2.75;1.60;;;23.40;39.80;;;;;;4992558;28;20022;-62
2022/03/31 12:08:25;;;;;;;2.63;1.65;;;23.40;39.80;;;;;;4991698;28;20034;-61
2022/03/31 12:10:52;;;;;;;2.60;1.70;;;23.40;39.70;;;;;;4993368;28;20632;-61
2022/03/31 12:13:19;;;;;;;2.88;1.60;;;23.40;39.80;;;;;;4985393;28;20110;-61
2022/03/31 12:15:45;;;;;;;2.53;1.60;;;23.40;39.80;;;;;;4992073;28;20041;-63
2022/03/31 12:18:18;;;;;;;3.25;1.67;;;23.40;39.80;;;;;;4980330;28;20096;-61
2022/03/31 12:20:49;;;;;;;2.85;1.58;;;23.40;39.80;;;;;;4989262;28;20026;-63
2022/03/31 12:23:23;;;;;;;3.22;1.60;;;23.40;39.80;;;;;;4993812;28;20033;-62
2022/03/31 12:25:49;;;;;;;3.25;1.90;;;23.50;39.80;;;;;;4995776;28;20033;-63
2022/03/31 12:28:23;;;;;;;2.72;1.50;;;23.40;39.80;;;;;;4995939;28;20031;-62
2022/03/31 12:30:51;;;;;;;3.00;1.83;;;23.40;39.80;;;;;;4989452;28;20103;-62
2022/03/31 12:33:30;;;;;;;3.97;1.65;;;23.50;39.80;;;;;;4991457;28;20187;-62
2022/03/31 12:36:04;;;;;;;4.10;1.83;;;23.40;39.80;;;;;;4996529;28;20052;-65
2022/03/31 12:38:35;;;;;;;2.60;1.70;;;23.50;39.90;;;;;;4990845;28;20539;-65
2022/03/31 12:41:01;;;;;;;3.40;1.83;;;23.50;39.90;;;;;;5001425;28;20025;-63
2022/03/31 12:43:27;;;;;;;4.10;1.80;;;23.50;39.90;;;;;;4993597;28;20467;-63
2022/03/31 12:45:53;;;;;;;3.60;1.70;;;23.50;39.90;;;;;;4986077;28;20133;-65
2022/03/31 12:48:19;;;;;;;3.50;1.80;;;23.50;40.00;;;;;;4992320;28;20025;-62
2022/03/31 12:50:45;;;;;;;4.15;2.00;;;23.50;40.00;;;;;;4983658;28;20260;-63